createdAt,value
2017-08-20T00:01:58.493Z,20.50
2017-08-20T00:04:27.173Z,20.50
2017-08-20T00:06:56.290Z,20.50
2017-08-20T00:09:25.164Z,20.50
2017-08-20T00:11:53.811Z,20.40
2017-08-20T00:14:22.373Z,20.40
2017-08-20T00:16:51.234Z,20.40
2017-08-20T00:19:19.799Z,20.40
2017-08-20T00:21:48.725Z,20.30
2017-08-20T00:24:17.488Z,20.20
2017-08-20T00:26:46.284Z,20.20
2017-08-20T00:29:14.711Z,20.20
2017-08-20T00:31:43.600Z,20.10
2017-08-20T00:34:12.557Z,20.10
2017-08-20T00:36:41.464Z,20.10
2017-08-20T00:39:10.505Z,20.10
2017-08-20T00:41:39.293Z,20.10
2017-08-20T00:44:07.799Z,20.00
2017-08-20T00:46:36.387Z,19.90
2017-08-20T00:49:05.607Z,19.90
2017-08-20T00:51:35.157Z,19.60
2017-08-20T00:54:04.309Z,19.40
2017-08-20T00:56:33.328Z,19.40
2017-08-20T00:59:02.400Z,19.40
2017-08-20T01:01:31.106Z,19.40
2017-08-20T01:04:00.307Z,19.60
2017-08-20T01:06:29.085Z,19.70
2017-08-20T01:08:57.842Z,19.80
2017-08-20T01:11:26.599Z,19.80
2017-08-20T01:13:55.715Z,19.80
2017-08-20T01:16:24.511Z,19.90
2017-08-20T01:18:53.503Z,19.90
2017-08-20T01:21:22.427Z,19.90
2017-08-20T01:23:51.168Z,20.00
2017-08-20T01:26:19.962Z,20.00
2017-08-20T01:28:48.638Z,19.90
2017-08-20T01:31:17.510Z,19.80
2017-08-20T01:33:46.146Z,19.80
2017-08-20T01:36:14.705Z,19.80
2017-08-20T01:38:43.345Z,19.80
2017-08-20T01:41:12.197Z,19.80
2017-08-20T01:43:40.580Z,19.80
2017-08-20T01:46:08.916Z,19.80
2017-08-20T01:48:37.368Z,19.90
2017-08-20T01:51:05.798Z,19.90
2017-08-20T01:53:34.694Z,19.80
2017-08-20T01:56:03.467Z,19.70
2017-08-20T01:58:31.812Z,19.70
2017-08-20T02:01:00.090Z,19.80
2017-08-20T02:03:28.878Z,19.80
2017-08-20T02:05:57.441Z,19.80
2017-08-20T02:08:26.190Z,19.60
2017-08-20T02:10:55.064Z,19.60
2017-08-20T02:13:23.848Z,19.60
2017-08-20T02:15:52.694Z,19.60
2017-08-20T02:18:21.380Z,19.50
2017-08-20T02:20:50.291Z,19.40
2017-08-20T02:23:19.047Z,19.20
2017-08-20T02:25:47.761Z,19.00
2017-08-20T02:28:16.634Z,19.00
2017-08-20T02:30:45.527Z,19.20
2017-08-20T02:33:14.696Z,19.20
2017-08-20T02:35:43.432Z,19.30
2017-08-20T02:38:12.001Z,19.30
2017-08-20T02:40:40.492Z,19.40
2017-08-20T02:43:08.919Z,19.20
2017-08-20T02:45:37.549Z,19.10
2017-08-20T02:48:06.319Z,19.10
2017-08-20T02:50:35.391Z,19.10
2017-08-20T02:53:04.567Z,19.00
2017-08-20T02:55:33.565Z,19.00
2017-08-20T02:58:02.713Z,18.90
2017-08-20T03:00:31.674Z,18.70
2017-08-20T03:03:00.754Z,18.50
2017-08-20T03:05:29.676Z,18.50
2017-08-20T03:07:58.634Z,18.50
2017-08-20T03:10:27.601Z,18.30
2017-08-20T03:12:56.523Z,18.10
2017-08-20T03:15:25.585Z,18.00
2017-08-20T03:17:54.639Z,18.00
2017-08-20T03:20:23.110Z,18.00
2017-08-20T03:22:52.547Z,18.00
2017-08-20T03:25:22.124Z,18.10
2017-08-20T03:27:51.219Z,18.30
2017-08-20T03:30:20.466Z,18.50
2017-08-20T03:32:49.229Z,18.70
2017-08-20T03:35:18.192Z,18.90
2017-08-20T03:37:47.312Z,19.00
2017-08-20T03:40:16.237Z,19.10
2017-08-20T03:42:45.311Z,19.20
2017-08-20T03:45:14.060Z,19.20
2017-08-20T03:47:43.385Z,19.20
2017-08-20T03:50:12.732Z,19.30
2017-08-20T03:52:41.763Z,19.30
2017-08-20T03:55:10.271Z,19.10
2017-08-20T03:57:39.001Z,18.90
2017-08-20T04:00:08.775Z,18.80
2017-08-20T04:02:37.532Z,18.80
2017-08-20T04:05:06.192Z,18.50
2017-08-20T04:07:34.912Z,18.50
2017-08-20T04:10:04.027Z,18.40
2017-08-20T04:12:32.986Z,18.30
2017-08-20T04:15:01.659Z,18.10
2017-08-20T04:17:30.591Z,17.90
2017-08-20T04:19:59.395Z,17.90
2017-08-20T04:22:28.062Z,17.90
2017-08-20T04:24:56.851Z,18.00
2017-08-20T04:27:25.634Z,18.00
2017-08-20T04:29:54.879Z,18.00
2017-08-20T04:32:23.663Z,17.90
2017-08-20T04:34:54.269Z,18.00
2017-08-20T04:37:23.205Z,18.00
2017-08-20T04:39:51.800Z,17.90
2017-08-20T04:42:20.683Z,18.00
2017-08-20T04:44:49.444Z,18.00
2017-08-20T04:47:18.079Z,18.10
2017-08-20T04:49:46.956Z,18.20
2017-08-20T04:52:16.077Z,18.40
2017-08-20T04:54:44.968Z,18.30
2017-08-20T04:57:14.761Z,18.30
2017-08-20T04:59:43.465Z,18.20
2017-08-20T05:02:12.229Z,17.90
2017-08-20T05:04:41.037Z,17.70
2017-08-20T05:07:09.975Z,17.70
2017-08-20T05:09:39.137Z,17.70
2017-08-20T05:12:08.066Z,17.80
2017-08-20T05:14:36.912Z,17.80
2017-08-20T05:17:05.952Z,17.90
2017-08-20T05:19:35.083Z,17.80
2017-08-20T05:22:03.610Z,17.60
2017-08-20T05:24:32.472Z,17.60
2017-08-20T05:27:01.214Z,17.60
2017-08-20T05:29:30.238Z,17.80
2017-08-20T05:31:59.154Z,17.90
2017-08-20T05:34:27.957Z,18.00
2017-08-20T05:36:56.568Z,18.00
2017-08-20T05:39:26.530Z,18.10
2017-08-20T05:41:55.502Z,18.20
2017-08-20T05:44:24.242Z,18.20
2017-08-20T05:46:53.563Z,18.30
2017-08-20T05:49:22.202Z,18.40
2017-08-20T05:51:51.112Z,18.20
2017-08-20T05:54:23.818Z,18.10
2017-08-20T05:56:52.144Z,18.20
2017-08-20T05:59:21.199Z,18.40
2017-08-20T06:01:50.355Z,18.50
2017-08-20T06:04:19.218Z,18.80
2017-08-20T06:06:47.931Z,18.90
2017-08-20T06:09:16.776Z,19.20
2017-08-20T06:11:49.386Z,19.50
2017-08-20T06:14:18.155Z,19.90
2017-08-20T06:16:47.041Z,20.30
2017-08-20T06:19:15.823Z,20.70
2017-08-20T06:21:44.782Z,21.20
2017-08-20T06:24:13.459Z,21.60
2017-08-20T06:26:42.524Z,22.20
2017-08-20T06:29:11.338Z,22.60
2017-08-20T06:31:40.144Z,22.80
2017-08-20T06:34:08.905Z,22.90
2017-08-20T06:36:38.036Z,23.10
2017-08-20T06:39:06.603Z,23.30
2017-08-20T06:41:35.540Z,23.50
2017-08-20T06:44:04.935Z,23.70
2017-08-20T06:46:33.693Z,23.90
2017-08-20T06:49:02.817Z,24.00
2017-08-20T06:51:31.440Z,24.10
2017-08-20T06:54:00.421Z,24.30
2017-08-20T06:56:29.177Z,24.50
2017-08-20T06:58:58.526Z,24.70
2017-08-20T07:01:27.326Z,25.00
2017-08-20T07:03:56.054Z,25.10
2017-08-20T07:06:25.171Z,25.10
2017-08-20T07:08:54.370Z,24.90
2017-08-20T07:11:24.192Z,24.90
2017-08-20T07:13:52.873Z,25.00
2017-08-20T07:16:21.799Z,25.30
2017-08-20T07:18:50.525Z,25.30
2017-08-20T07:21:19.026Z,25.30
2017-08-20T07:23:47.784Z,25.40
2017-08-20T07:26:16.532Z,25.80
2017-08-20T07:28:45.309Z,26.00
2017-08-20T07:31:13.915Z,26.40
2017-08-20T07:33:42.662Z,26.70
2017-08-20T07:36:11.320Z,27.20
2017-08-20T07:38:39.748Z,27.50
2017-08-20T07:41:08.619Z,27.80
2017-08-20T07:43:37.443Z,28.20
2017-08-20T07:46:06.044Z,28.40
2017-08-20T07:48:34.954Z,28.60
2017-08-20T07:51:03.513Z,28.80
2017-08-20T07:53:32.299Z,29.10
2017-08-20T07:56:01.117Z,29.00
2017-08-20T07:58:29.956Z,27.00
2017-08-20T08:00:58.769Z,26.20
2017-08-20T08:03:27.632Z,26.20
2017-08-20T08:05:56.480Z,26.70
2017-08-20T08:08:25.410Z,27.20
2017-08-20T08:10:54.574Z,27.70
2017-08-20T08:13:23.063Z,28.10
2017-08-20T08:15:52.283Z,28.40
2017-08-20T08:18:21.433Z,28.50
2017-08-20T08:20:50.607Z,28.70
2017-08-20T08:23:19.429Z,29.00
2017-08-20T08:25:47.881Z,29.20
2017-08-20T08:28:16.980Z,29.40
2017-08-20T08:30:46.100Z,29.70
2017-08-20T08:33:15.293Z,29.90
2017-08-20T08:35:44.005Z,30.10
2017-08-20T08:38:13.254Z,30.00
2017-08-20T08:40:42.079Z,30.00
2017-08-20T08:43:10.867Z,30.10
2017-08-20T08:45:39.532Z,30.00
2017-08-20T08:48:09.405Z,29.80
2017-08-20T08:50:38.084Z,29.30
2017-08-20T08:53:06.821Z,29.10
2017-08-20T08:55:36.067Z,29.30
2017-08-20T08:58:04.898Z,29.50
2017-08-20T09:00:33.952Z,29.80
2017-08-20T09:03:02.695Z,30.10
2017-08-20T09:05:31.507Z,30.20
2017-08-20T09:08:00.600Z,30.50
2017-08-20T09:10:29.269Z,30.40
2017-08-20T09:12:58.155Z,29.80
2017-08-20T09:15:26.820Z,29.50
2017-08-20T09:17:56.325Z,29.30
2017-08-20T09:20:25.135Z,29.00
2017-08-20T09:22:53.899Z,29.20
2017-08-20T09:25:23.559Z,29.60
2017-08-20T09:27:52.478Z,29.80
2017-08-20T09:30:21.790Z,30.30
2017-08-20T09:32:50.881Z,30.50
2017-08-20T09:35:20.229Z,30.40
2017-08-20T09:37:49.216Z,30.20
2017-08-20T09:40:18.032Z,30.60
2017-08-20T09:42:46.973Z,30.70
2017-08-20T09:45:16.110Z,30.60
2017-08-20T09:47:45.018Z,30.40
2017-08-20T09:50:13.528Z,30.40
2017-08-20T09:52:42.159Z,29.80
2017-08-20T09:55:11.431Z,29.50
2017-08-20T09:57:41.047Z,29.50
2017-08-20T10:00:10.794Z,29.20
2017-08-20T10:02:39.559Z,28.90
2017-08-20T10:05:08.372Z,28.70
2017-08-20T10:07:37.014Z,28.50
2017-08-20T10:10:05.838Z,28.50
2017-08-20T10:12:34.180Z,28.30
2017-08-20T10:15:02.958Z,28.10
2017-08-20T10:17:31.547Z,27.90
2017-08-20T10:20:00.612Z,27.80
2017-08-20T10:22:29.307Z,27.50
2017-08-20T10:24:58.701Z,27.30
2017-08-20T10:27:27.659Z,27.20
2017-08-20T10:29:56.505Z,27.20
2017-08-20T10:32:25.059Z,27.10
2017-08-20T10:34:54.013Z,27.10
2017-08-20T10:37:22.763Z,27.00
2017-08-20T10:39:51.445Z,26.80
2017-08-20T10:42:20.354Z,26.60
2017-08-20T10:44:48.968Z,26.50
2017-08-20T10:47:17.588Z,26.50
2017-08-20T10:49:46.098Z,26.50
2017-08-20T10:52:14.797Z,26.50
2017-08-20T10:54:43.353Z,26.40
2017-08-20T10:57:12.143Z,26.20
2017-08-20T10:59:40.846Z,25.90
2017-08-20T11:02:09.767Z,25.80
2017-08-20T11:04:38.719Z,25.70
2017-08-20T11:07:07.474Z,25.50
2017-08-20T11:09:36.573Z,25.40
2017-08-20T11:12:05.516Z,25.50
2017-08-20T11:14:34.787Z,25.80
2017-08-20T11:17:03.426Z,26.40
2017-08-20T11:19:33.512Z,27.00
2017-08-20T11:22:02.276Z,27.50
2017-08-20T11:24:31.173Z,28.00
2017-08-20T11:27:00.614Z,28.50
2017-08-20T11:29:29.857Z,28.80
2017-08-20T11:31:58.886Z,28.80
2017-08-20T11:34:27.773Z,28.70
2017-08-20T11:36:56.610Z,28.50
2017-08-20T11:39:25.252Z,28.40
2017-08-20T11:41:54.170Z,28.40
2017-08-20T11:44:23.126Z,28.30
2017-08-20T11:46:51.790Z,28.20
2017-08-20T11:49:20.602Z,28.30
2017-08-20T11:51:49.210Z,28.50
2017-08-20T11:54:17.788Z,28.50
2017-08-20T11:56:46.708Z,28.50
2017-08-20T11:59:15.505Z,28.70
2017-08-20T12:01:44.152Z,28.70
2017-08-20T12:04:13.084Z,28.90
2017-08-20T12:06:41.612Z,29.20
2017-08-20T12:09:10.327Z,29.60
2017-08-20T12:11:39.234Z,30.00
2017-08-20T12:14:07.896Z,30.30
2017-08-20T12:16:36.619Z,30.40
2017-08-20T12:19:06.197Z,30.50
2017-08-20T12:21:34.966Z,30.60
2017-08-20T12:24:03.325Z,30.70
2017-08-20T12:26:31.955Z,30.50
2017-08-20T12:29:01.015Z,30.50
2017-08-20T12:31:29.607Z,30.30
2017-08-20T12:33:58.644Z,30.20
2017-08-20T12:36:27.764Z,30.20
2017-08-20T12:38:56.543Z,30.00
2017-08-20T12:41:25.624Z,29.80
2017-08-20T12:43:54.331Z,29.80
2017-08-20T12:46:23.216Z,29.70
2017-08-20T12:48:52.019Z,29.40
2017-08-20T12:51:20.714Z,29.40
2017-08-20T12:53:49.592Z,29.60
2017-08-20T12:56:18.510Z,29.40
2017-08-20T12:58:47.270Z,29.40
2017-08-20T13:01:16.158Z,29.20
2017-08-20T13:03:45.372Z,29.20
2017-08-20T13:06:14.312Z,29.20
2017-08-20T13:08:43.295Z,29.30
2017-08-20T13:11:12.191Z,28.80
2017-08-20T13:13:41.349Z,28.60
2017-08-20T13:16:10.863Z,28.90
2017-08-20T13:18:40.691Z,29.00
2017-08-20T13:21:11.109Z,29.20
2017-08-20T13:23:40.049Z,29.30
2017-08-20T13:26:08.800Z,29.40
2017-08-20T13:28:38.651Z,29.60
2017-08-20T13:31:07.288Z,29.20
2017-08-20T13:33:36.074Z,29.10
2017-08-20T13:36:04.692Z,29.30
2017-08-20T13:38:33.747Z,29.50
2017-08-20T13:41:03.500Z,29.60
2017-08-20T13:43:32.385Z,29.70
2017-08-20T13:46:01.194Z,29.70
2017-08-20T13:48:29.941Z,29.50
2017-08-20T13:50:58.805Z,29.50
2017-08-20T13:53:27.708Z,29.60
2017-08-20T13:55:56.525Z,29.50
2017-08-20T13:58:25.474Z,29.60
2017-08-20T14:00:54.828Z,29.60
2017-08-20T14:03:23.996Z,29.10
2017-08-20T14:05:52.630Z,28.80
2017-08-20T14:08:21.691Z,29.00
2017-08-20T14:10:50.185Z,29.10
2017-08-20T14:13:18.843Z,28.80
2017-08-20T14:15:48.043Z,28.80
2017-08-20T14:18:17.010Z,28.70
2017-08-20T14:20:45.596Z,28.70
2017-08-20T14:23:14.524Z,28.70
2017-08-20T14:25:43.290Z,28.60
2017-08-20T14:28:11.985Z,28.60
2017-08-20T14:30:41.538Z,28.60
2017-08-20T14:33:10.033Z,28.60
2017-08-20T14:35:38.524Z,28.50
2017-08-20T14:38:07.296Z,28.40
2017-08-20T14:40:35.756Z,28.00
2017-08-20T14:43:04.772Z,27.30
2017-08-20T14:45:33.744Z,27.00
2017-08-20T14:48:03.316Z,26.70
2017-08-20T14:50:32.088Z,26.40
2017-08-20T14:53:02.018Z,26.20
2017-08-20T14:55:30.596Z,26.00
2017-08-20T14:58:00.142Z,25.90
2017-08-20T15:00:28.881Z,25.70
2017-08-20T15:02:57.619Z,25.80
2017-08-20T15:05:26.309Z,25.80
2017-08-20T15:07:56.283Z,26.00
2017-08-20T15:10:25.028Z,26.30
2017-08-20T15:12:54.250Z,26.10
2017-08-20T15:15:23.093Z,25.80
2017-08-20T15:17:52.164Z,25.70
2017-08-20T15:20:21.203Z,25.90
2017-08-20T15:22:49.850Z,26.10
2017-08-20T15:25:18.607Z,26.30
2017-08-20T15:27:47.238Z,26.50
2017-08-20T15:30:15.989Z,26.70
2017-08-20T15:32:45.024Z,26.80
2017-08-20T15:35:13.740Z,26.90
2017-08-20T15:37:42.399Z,26.80
2017-08-20T15:40:11.268Z,26.80
2017-08-20T15:42:40.061Z,26.70
2017-08-20T15:45:08.873Z,26.60
2017-08-20T15:47:37.481Z,26.70
2017-08-20T15:50:06.216Z,26.60
2017-08-20T15:52:34.860Z,26.40
2017-08-20T15:55:03.716Z,26.30
2017-08-20T15:57:33.023Z,26.00
2017-08-20T16:00:01.667Z,25.60
2017-08-20T16:02:30.571Z,25.40
2017-08-20T16:04:59.416Z,25.40
2017-08-20T16:07:28.441Z,24.90
2017-08-20T16:09:57.304Z,25.00
2017-08-20T16:12:26.217Z,25.10
2017-08-20T16:14:55.001Z,25.20
2017-08-20T16:17:24.847Z,25.20
2017-08-20T16:19:53.848Z,25.20
2017-08-20T16:22:22.374Z,25.10
2017-08-20T16:24:50.993Z,25.10
2017-08-20T16:27:20.102Z,25.20
2017-08-20T16:29:48.887Z,25.20
2017-08-20T16:32:18.646Z,25.20
2017-08-20T16:34:47.426Z,25.20
2017-08-20T16:37:17.366Z,25.10
2017-08-20T16:39:46.275Z,24.60
2017-08-20T16:42:15.066Z,24.20
2017-08-20T16:44:44.303Z,23.90
2017-08-20T16:47:13.219Z,23.50
2017-08-20T16:49:42.067Z,23.30
2017-08-20T16:52:11.254Z,23.30
2017-08-20T16:54:40.216Z,23.30
2017-08-20T16:57:09.218Z,23.30
2017-08-20T16:59:37.915Z,22.80
2017-08-20T17:02:06.644Z,22.20
2017-08-20T17:04:35.634Z,21.90
2017-08-20T17:07:04.478Z,22.70
2017-08-20T17:09:33.162Z,23.40
2017-08-20T17:12:02.312Z,23.60
2017-08-20T17:14:31.122Z,23.50
2017-08-20T17:16:59.517Z,23.60
2017-08-20T17:19:28.187Z,23.70
2017-08-20T17:21:56.728Z,23.50
2017-08-20T17:24:25.795Z,23.50
2017-08-20T17:26:54.806Z,23.50
2017-08-20T17:29:23.802Z,23.30
2017-08-20T17:31:52.527Z,23.10
2017-08-20T17:34:21.449Z,23.00
2017-08-20T17:36:50.125Z,23.00
2017-08-20T17:39:19.752Z,23.00
2017-08-20T17:41:49.245Z,23.00
2017-08-20T17:44:18.309Z,23.00
2017-08-20T17:46:46.676Z,23.10
2017-08-20T17:49:15.216Z,23.20
2017-08-20T17:51:43.914Z,23.20
2017-08-20T17:54:12.526Z,23.10
2017-08-20T17:56:41.151Z,22.90
2017-08-20T17:59:09.726Z,22.80
2017-08-20T18:01:38.484Z,22.80
2017-08-20T18:04:07.545Z,22.80
2017-08-20T18:06:36.149Z,22.90
2017-08-20T18:09:05.057Z,23.00
2017-08-20T18:11:33.957Z,23.00
2017-08-20T18:14:02.926Z,23.10
2017-08-20T18:16:31.473Z,23.10
2017-08-20T18:19:00.342Z,22.90
2017-08-20T18:21:29.096Z,22.60
2017-08-20T18:23:57.794Z,22.60
2017-08-20T18:26:27.349Z,22.60
2017-08-20T18:28:56.396Z,22.60
2017-08-20T18:31:25.083Z,22.50
2017-08-20T18:33:54.255Z,22.50
2017-08-20T18:36:24.023Z,22.50
2017-08-20T18:38:52.898Z,22.50
2017-08-20T18:41:21.720Z,22.50
2017-08-20T18:43:50.402Z,22.50
2017-08-20T18:46:19.524Z,22.30
2017-08-20T18:48:48.412Z,22.30
2017-08-20T18:51:17.324Z,22.20
2017-08-20T18:53:46.137Z,22.00
2017-08-20T18:56:14.955Z,21.90
2017-08-20T18:58:43.806Z,21.90
2017-08-20T19:01:12.473Z,21.90
2017-08-20T19:03:43.179Z,21.90
2017-08-20T19:06:11.887Z,22.00
2017-08-20T19:08:40.517Z,22.00
2017-08-20T19:11:11.508Z,22.00
2017-08-20T19:13:40.506Z,22.00
2017-08-20T19:16:09.396Z,22.10
2017-08-20T19:18:38.062Z,22.10
2017-08-20T19:21:06.953Z,22.10
2017-08-20T19:23:35.606Z,22.00
2017-08-20T19:26:04.375Z,22.00
2017-08-20T19:28:34.612Z,22.10
2017-08-20T19:31:04.165Z,22.10
2017-08-20T19:33:33.776Z,22.20
2017-08-20T19:36:03.276Z,22.10
2017-08-20T19:38:36.197Z,21.90
2017-08-20T19:41:06.474Z,21.90
2017-08-20T19:43:36.017Z,21.90
2017-08-20T19:46:05.461Z,21.80
2017-08-20T19:48:36.337Z,21.70
2017-08-20T19:51:04.835Z,21.70
2017-08-20T19:53:33.075Z,21.60
2017-08-20T19:56:01.339Z,21.60
2017-08-20T19:58:29.621Z,21.60
2017-08-20T20:00:57.860Z,21.70
2017-08-20T20:03:26.114Z,21.70
2017-08-20T20:05:54.368Z,21.70
2017-08-20T20:08:22.946Z,21.60
2017-08-20T20:10:51.860Z,21.60
2017-08-20T20:13:20.149Z,21.70
2017-08-20T20:15:48.393Z,21.70
2017-08-20T20:18:16.637Z,21.40
2017-08-20T20:20:44.915Z,21.30
2017-08-20T20:23:13.279Z,21.20
2017-08-20T20:25:41.584Z,21.20
2017-08-20T20:28:09.879Z,21.20
2017-08-20T20:30:38.132Z,21.20
2017-08-20T20:33:06.381Z,21.00
2017-08-20T20:35:34.672Z,21.00
2017-08-20T20:38:02.900Z,20.90
2017-08-20T20:40:31.147Z,20.80
2017-08-20T20:42:59.473Z,20.80
2017-08-20T20:45:27.712Z,20.80
2017-08-20T20:47:55.953Z,20.80
2017-08-20T20:50:24.260Z,20.80
2017-08-20T20:52:52.513Z,20.90
2017-08-20T20:55:20.772Z,20.90
2017-08-20T20:57:49.064Z,21.00
2017-08-20T21:00:17.301Z,21.10
2017-08-20T21:02:45.547Z,21.10
2017-08-20T21:05:13.805Z,21.30
2017-08-20T21:07:42.049Z,21.30
2017-08-20T21:10:10.303Z,21.40
2017-08-20T21:12:38.576Z,21.50
2017-08-20T21:15:06.809Z,21.50
2017-08-20T21:17:35.054Z,21.50
2017-08-20T21:20:03.465Z,21.50
2017-08-20T21:22:31.687Z,21.50
2017-08-20T21:25:00.146Z,21.40
2017-08-20T21:27:28.629Z,21.50
2017-08-20T21:29:56.864Z,21.30
2017-08-20T21:32:25.107Z,21.30
2017-08-20T21:34:53.391Z,21.40
2017-08-20T21:37:22.323Z,21.50
2017-08-20T21:39:50.560Z,21.20
2017-08-20T21:42:18.903Z,21.20
2017-08-20T21:44:47.135Z,21.20
2017-08-20T21:47:15.391Z,21.30
2017-08-20T21:49:43.656Z,21.30
2017-08-20T21:52:11.898Z,21.20
2017-08-20T21:54:40.124Z,21.00
2017-08-20T21:57:08.467Z,21.00
2017-08-20T21:59:36.702Z,20.90
2017-08-20T22:02:04.943Z,21.00
2017-08-20T22:04:33.613Z,21.00
2017-08-20T22:07:02.301Z,21.00
2017-08-20T22:09:30.817Z,21.00
2017-08-20T22:11:59.659Z,21.00
2017-08-20T22:14:28.842Z,21.10
2017-08-20T22:16:57.492Z,21.10
2017-08-20T22:19:26.206Z,21.10
2017-08-20T22:21:54.942Z,20.90
2017-08-20T22:24:23.585Z,20.90
2017-08-20T22:26:52.281Z,20.90
2017-08-20T22:29:21.215Z,20.90
2017-08-20T22:31:50.041Z,21.00
2017-08-20T22:34:18.798Z,20.90
2017-08-20T22:36:47.512Z,21.00
2017-08-20T22:39:16.124Z,20.80
2017-08-20T22:41:45.012Z,20.80
2017-08-20T22:44:13.745Z,20.90
2017-08-20T22:46:42.724Z,20.90
2017-08-20T22:49:12.044Z,21.00
2017-08-20T22:51:40.943Z,21.10
2017-08-20T22:54:11.314Z,21.10
2017-08-20T22:56:40.243Z,21.20
2017-08-20T22:59:08.843Z,21.10
2017-08-20T23:01:38.167Z,21.10
2017-08-20T23:04:07.155Z,21.00
2017-08-20T23:06:36.245Z,20.70
2017-08-20T23:09:05.334Z,20.70
2017-08-20T23:11:34.731Z,20.70
2017-08-20T23:14:03.660Z,20.80
2017-08-20T23:16:33.210Z,20.80
2017-08-20T23:19:02.183Z,20.90
2017-08-20T23:21:30.747Z,20.90
2017-08-20T23:23:59.404Z,20.90
2017-08-20T23:26:27.932Z,20.90
2017-08-20T23:28:57.428Z,20.80
2017-08-20T23:31:26.569Z,20.80
2017-08-20T23:33:55.415Z,20.70
2017-08-20T23:36:24.159Z,20.70
2017-08-20T23:38:53.053Z,20.50
2017-08-20T23:41:21.975Z,20.40
2017-08-20T23:43:51.003Z,20.30
2017-08-20T23:46:20.050Z,20.30
2017-08-20T23:48:49.404Z,20.30
2017-08-20T23:51:18.537Z,20.30
2017-08-20T23:53:47.653Z,20.40
2017-08-20T23:56:16.415Z,20.30
2017-08-20T23:58:45.194Z,20.30
